createdAt,value
2019-02-03T00:00:15.944Z,59.58
2019-02-03T00:02:45.578Z,59.25
2019-02-03T00:05:15.271Z,44.05
2019-02-03T00:07:44.754Z,50.17
2019-02-03T00:10:14.415Z,55.78
2019-02-03T00:12:43.905Z,51.08
2019-02-03T00:15:13.921Z,54.25
2019-02-03T00:17:43.444Z,47.88
2019-02-03T00:20:13.449Z,66.80
2019-02-03T00:22:43.131Z,57.88
2019-02-03T00:25:12.770Z,58.95
2019-02-03T00:27:42.403Z,44.80
2019-02-03T00:30:15.175Z,48.28
2019-02-03T00:32:44.754Z,57.53
2019-02-03T00:35:15.270Z,43.98
2019-02-03T00:37:44.825Z,61.10
2019-02-03T00:40:15.949Z,59.20
2019-02-03T00:42:45.527Z,53.55
2019-02-03T00:45:15.869Z,39.88
2019-02-03T00:47:45.541Z,42.30
2019-02-03T00:50:16.990Z,49.73
2019-02-03T00:52:46.566Z,49.25
2019-02-03T00:55:18.534Z,47.25
2019-02-03T00:57:48.098Z,43.80
2019-02-03T01:00:18.889Z,34.55
2019-02-03T01:02:48.387Z,35.78
2019-02-03T01:05:19.569Z,34.30
2019-02-03T01:07:49.201Z,32.58
2019-02-03T01:10:23.679Z,34.10
2019-02-03T01:12:53.327Z,36.00
2019-02-03T01:15:22.961Z,30.08
2019-02-03T01:17:52.530Z,35.85
2019-02-03T01:20:26.800Z,33.08
2019-02-03T01:22:56.494Z,37.60
2019-02-03T01:25:26.000Z,40.20
2019-02-03T01:27:55.692Z,34.70
2019-02-03T01:30:26.146Z,41.35
2019-02-03T01:32:55.695Z,50.30
2019-02-03T01:35:25.330Z,43.00
2019-02-03T01:37:55.112Z,38.20
2019-02-03T01:40:24.835Z,32.13
2019-02-03T01:42:54.394Z,32.60
2019-02-03T01:45:24.583Z,33.63
2019-02-03T01:47:54.220Z,47.53
2019-02-03T01:50:24.140Z,32.40
2019-02-03T01:52:53.704Z,42.93
2019-02-03T01:55:26.506Z,49.67
2019-02-03T01:57:56.180Z,35.98
2019-02-03T02:00:28.894Z,36.25
2019-02-03T02:02:58.658Z,32.23
2019-02-03T02:05:28.282Z,44.67
2019-02-03T02:07:57.851Z,43.30
2019-02-03T02:10:29.374Z,43.13
2019-02-03T02:12:59.010Z,41.77
2019-02-03T02:15:28.694Z,41.77
2019-02-03T02:17:58.207Z,54.48
2019-02-03T02:20:30.103Z,44.73
2019-02-03T02:22:59.721Z,57.03
2019-02-03T02:25:29.298Z,49.08
2019-02-03T02:27:58.860Z,49.18
2019-02-03T02:30:28.829Z,60.78
2019-02-03T02:32:58.479Z,48.15
2019-02-03T02:35:28.081Z,46.85
2019-02-03T02:38:06.344Z,38.95
2019-02-03T02:40:28.791Z,63.05
2019-02-03T02:42:58.657Z,71.75
2019-02-03T02:45:28.146Z,48.28
2019-02-03T02:47:57.638Z,54.63
2019-02-03T02:50:37.133Z,37.95
2019-02-03T02:53:06.628Z,52.75
2019-02-03T02:55:36.175Z,39.75
2019-02-03T02:58:06.170Z,38.67
2019-02-03T03:00:35.812Z,49.30
2019-02-03T03:03:05.559Z,41.35
2019-02-03T03:05:35.068Z,38.00
2019-02-03T03:08:18.429Z,43.42
2019-02-03T03:10:36.936Z,37.00
2019-02-03T03:13:06.636Z,44.48
2019-02-03T03:15:36.128Z,45.60
2019-02-03T03:18:06.063Z,42.93
2019-02-03T03:20:36.025Z,49.58
2019-02-03T03:23:05.693Z,53.95
2019-02-03T03:25:35.256Z,59.08
2019-02-03T03:28:04.907Z,47.67
2019-02-03T03:30:34.584Z,50.60
2019-02-03T03:33:04.415Z,46.42
2019-02-03T03:35:34.547Z,46.00
2019-02-03T03:38:04.486Z,57.50
2019-02-03T03:40:35.033Z,45.28
2019-02-03T03:43:04.866Z,55.45
2019-02-03T03:45:34.430Z,54.90
2019-02-03T03:48:04.350Z,49.50
2019-02-03T03:50:33.864Z,49.83
2019-02-03T03:53:03.538Z,49.93
2019-02-03T03:55:33.155Z,58.98
2019-02-03T03:58:02.638Z,52.58
2019-02-03T04:00:32.602Z,58.65
2019-02-03T04:03:02.070Z,50.85
2019-02-03T04:05:31.828Z,60.83
2019-02-03T04:08:01.319Z,40.50
2019-02-03T04:10:30.815Z,39.45
2019-02-03T04:13:00.289Z,50.17
2019-02-03T04:15:29.851Z,50.03
2019-02-03T04:17:59.367Z,53.08
2019-02-03T04:20:31.447Z,48.65
2019-02-03T04:23:00.993Z,53.92
2019-02-03T04:25:30.482Z,44.88
2019-02-03T04:28:00.319Z,38.50
2019-02-03T04:30:29.883Z,50.43
2019-02-03T04:32:59.369Z,40.83
2019-02-03T04:35:28.868Z,45.35
2019-02-03T04:37:58.455Z,49.83
2019-02-03T04:40:28.032Z,51.60
2019-02-03T04:42:57.611Z,42.73
2019-02-03T04:45:27.096Z,56.60
2019-02-03T04:47:56.607Z,54.50
2019-02-03T04:50:26.090Z,47.65
2019-02-03T04:52:55.604Z,44.13
2019-02-03T04:55:25.329Z,44.10
2019-02-03T04:57:54.905Z,48.48
2019-02-03T05:00:25.601Z,50.67
2019-02-03T05:02:55.091Z,48.40
2019-02-03T05:05:24.683Z,39.08
2019-02-03T05:07:54.811Z,45.10
2019-02-03T05:10:24.376Z,42.00
2019-02-03T05:12:53.940Z,45.90
2019-02-03T05:15:24.549Z,54.90
2019-02-03T05:17:54.128Z,44.33
2019-02-03T05:20:26.425Z,53.08
2019-02-03T05:22:56.094Z,46.40
2019-02-03T05:25:25.680Z,41.53
2019-02-03T05:27:55.269Z,51.90
2019-02-03T05:30:31.420Z,47.65
2019-02-03T05:33:01.260Z,45.60
2019-02-03T05:35:30.885Z,54.40
2019-02-03T05:38:00.565Z,48.98
2019-02-03T05:40:30.112Z,60.25
2019-02-03T05:42:59.677Z,56.28
2019-02-03T05:45:29.232Z,50.73
2019-02-03T05:47:58.719Z,56.73
2019-02-03T05:50:28.207Z,42.08
2019-02-03T05:52:57.723Z,44.20
2019-02-03T05:55:27.287Z,55.30
2019-02-03T05:57:56.781Z,40.65
2019-02-03T06:00:36.122Z,40.78
2019-02-03T06:03:05.917Z,42.13
2019-02-03T06:05:35.502Z,45.23
2019-02-03T06:08:05.487Z,45.48
2019-02-03T06:10:35.055Z,46.18
2019-02-03T06:13:04.600Z,51.60
2019-02-03T06:15:34.091Z,41.90
2019-02-03T06:18:03.779Z,50.67
2019-02-03T06:20:33.262Z,49.25
2019-02-03T06:23:02.762Z,51.35
2019-02-03T06:25:32.714Z,46.05
2019-02-03T06:28:02.206Z,48.60
2019-02-03T06:30:51.512Z,52.65
2019-02-03T06:33:21.022Z,63.40
2019-02-03T06:35:50.952Z,49.20
2019-02-03T06:38:20.489Z,41.18
2019-02-03T06:40:50.116Z,38.78
2019-02-03T06:43:19.627Z,46.77
2019-02-03T06:45:48.890Z,46.35
2019-02-03T06:48:28.568Z,53.65
2019-02-03T06:50:58.188Z,49.08
2019-02-03T06:53:27.695Z,40.98
2019-02-03T06:55:57.182Z,53.78
2019-02-03T06:58:28.232Z,37.78
2019-02-03T07:00:58.087Z,47.73
2019-02-03T07:03:27.570Z,40.28
2019-02-03T07:05:57.245Z,58.48
2019-02-03T07:08:26.738Z,41.98
2019-02-03T07:10:56.241Z,43.13
2019-02-03T07:13:25.797Z,55.12
2019-02-03T07:15:55.311Z,55.25
2019-02-03T07:18:24.863Z,39.60
2019-02-03T07:20:54.384Z,44.00
2019-02-03T07:23:23.948Z,44.85
2019-02-03T07:25:53.442Z,58.52
2019-02-03T07:28:23.213Z,53.52
2019-02-03T07:30:52.757Z,49.70
2019-02-03T07:33:22.397Z,53.35
2019-02-03T07:35:52.028Z,51.05
2019-02-03T07:38:21.542Z,44.95
2019-02-03T07:40:52.271Z,42.33
2019-02-03T07:43:21.762Z,47.35
2019-02-03T07:45:51.398Z,41.65
2019-02-03T07:48:20.979Z,50.90
2019-02-03T07:50:50.536Z,39.80
2019-02-03T07:53:20.099Z,36.05
2019-02-03T07:55:49.632Z,39.25
2019-02-03T07:58:19.130Z,43.10
2019-02-03T08:00:48.708Z,49.75
2019-02-03T08:03:18.264Z,32.70
2019-02-03T08:05:47.821Z,42.05
2019-02-03T08:08:17.407Z,33.38
2019-02-03T08:10:47.039Z,34.45
2019-02-03T08:13:16.673Z,45.75
2019-02-03T08:15:46.235Z,38.98
2019-02-03T08:18:15.818Z,41.40
2019-02-03T08:20:45.502Z,38.53
2019-02-03T08:23:15.436Z,45.20
2019-02-03T08:25:44.934Z,47.17
2019-02-03T08:28:14.459Z,48.73
2019-02-03T08:30:43.964Z,41.48
2019-02-03T08:33:13.503Z,48.28
2019-02-03T08:35:42.983Z,43.40
2019-02-03T08:38:12.509Z,41.73
2019-02-03T08:40:42.184Z,38.15
2019-02-03T08:43:11.774Z,37.67
2019-02-03T08:45:41.412Z,39.63
2019-02-03T08:48:11.114Z,47.75
2019-02-03T08:50:41.174Z,41.53
2019-02-03T08:53:10.825Z,37.98
2019-02-03T08:55:40.386Z,42.03
2019-02-03T08:58:12.391Z,44.25
2019-02-03T09:00:44.056Z,36.93
2019-02-03T09:03:14.004Z,37.48
2019-02-03T09:05:43.581Z,38.98
2019-02-03T09:08:13.167Z,38.85
2019-02-03T09:10:48.422Z,38.58
2019-02-03T09:13:13.985Z,27.20
2019-02-03T09:15:43.628Z,31.35
2019-02-03T09:18:13.205Z,38.92
2019-02-03T09:20:42.757Z,29.63
2019-02-03T09:23:12.252Z,27.15
2019-02-03T09:25:41.732Z,26.77
2019-02-03T09:28:11.310Z,31.37
2019-02-03T09:30:40.978Z,26.42
2019-02-03T09:33:10.650Z,26.48
2019-02-03T09:35:40.201Z,31.05
2019-02-03T09:38:09.935Z,27.67
2019-02-03T09:40:39.454Z,20.95
2019-02-03T09:43:09.017Z,29.72
2019-02-03T09:45:38.659Z,21.07
2019-02-03T09:48:08.311Z,19.23
2019-02-03T09:50:37.914Z,20.08
2019-02-03T09:53:07.874Z,22.25
2019-02-03T09:55:37.516Z,22.67
2019-02-03T09:58:07.791Z,17.92
2019-02-03T10:00:38.901Z,21.73
2019-02-03T10:03:12.123Z,22.15
2019-02-03T10:05:41.750Z,14.73
2019-02-03T10:08:11.446Z,23.62
2019-02-03T10:10:42.717Z,18.02
2019-02-03T10:13:12.353Z,20.75
2019-02-03T10:15:41.973Z,15.75
2019-02-03T10:18:11.747Z,13.93
2019-02-03T10:20:41.299Z,15.32
2019-02-03T10:23:10.858Z,15.23
2019-02-03T10:25:40.489Z,16.75
2019-02-03T10:28:10.295Z,14.18
2019-02-03T10:30:39.942Z,18.12
2019-02-03T10:33:09.484Z,17.27
2019-02-03T10:35:39.035Z,17.85
2019-02-03T10:38:09.256Z,16.37
2019-02-03T10:40:43.692Z,17.27
2019-02-03T10:43:13.411Z,15.80
2019-02-03T10:45:42.991Z,12.15
2019-02-03T10:48:12.637Z,16.73
2019-02-03T10:50:43.010Z,12.28
2019-02-03T10:53:13.514Z,17.62
2019-02-03T10:55:43.182Z,13.18
2019-02-03T10:58:12.764Z,13.25
2019-02-03T11:00:44.249Z,9.15
2019-02-03T11:03:13.888Z,9.43
2019-02-03T11:05:50.943Z,12.47
2019-02-03T11:08:20.600Z,14.38
2019-02-03T11:10:50.473Z,13.72
2019-02-03T11:13:20.055Z,19.12
2019-02-03T11:15:49.693Z,10.05
2019-02-03T11:18:19.550Z,13.25
2019-02-03T11:20:49.112Z,15.78
2019-02-03T11:23:18.654Z,8.67
2019-02-03T11:25:48.393Z,9.85
2019-02-03T11:28:17.942Z,8.25
2019-02-03T11:30:47.680Z,10.05
2019-02-03T11:33:17.668Z,11.28
2019-02-03T11:35:47.239Z,9.40
2019-02-03T11:38:16.904Z,10.50
2019-02-03T11:40:46.397Z,8.45
2019-02-03T11:43:15.902Z,9.23
2019-02-03T11:45:45.431Z,7.70
2019-02-03T11:48:20.112Z,11.70
2019-02-03T11:50:51.018Z,10.40
2019-02-03T11:53:26.334Z,8.23
2019-02-03T11:55:56.489Z,5.15
2019-02-03T11:58:26.021Z,9.48
2019-02-03T12:00:56.120Z,16.55
2019-02-03T12:03:25.783Z,11.95
2019-02-03T12:05:55.412Z,7.65
2019-02-03T12:08:24.990Z,7.83
2019-02-03T12:10:54.557Z,8.88
2019-02-03T12:13:24.116Z,11.43
2019-02-03T12:15:53.839Z,6.20
2019-02-03T12:18:23.425Z,11.12
2019-02-03T12:20:53.127Z,7.90
2019-02-03T12:23:22.704Z,10.40
2019-02-03T12:25:52.674Z,18.67
2019-02-03T12:28:22.195Z,5.87
2019-02-03T12:30:51.908Z,8.47
2019-02-03T12:33:21.456Z,8.08
2019-02-03T12:35:51.061Z,10.45
2019-02-03T12:38:20.898Z,11.63
2019-02-03T12:40:50.486Z,4.37
2019-02-03T12:43:19.978Z,6.87
2019-02-03T12:45:49.477Z,4.58
2019-02-03T12:48:19.103Z,4.03
2019-02-03T12:50:48.667Z,5.78
2019-02-03T12:53:18.333Z,6.80
2019-02-03T12:55:47.916Z,2.35
2019-02-03T12:58:19.474Z,2.65
2019-02-03T13:00:49.542Z,2.52
2019-02-03T13:03:19.353Z,4.60
2019-02-03T13:05:49.499Z,8.50
2019-02-03T13:08:18.970Z,2.92
2019-02-03T13:10:48.547Z,5.78
2019-02-03T13:13:18.073Z,6.70
2019-02-03T13:15:51.066Z,5.58
2019-02-03T13:18:20.942Z,6.20
2019-02-03T13:20:50.516Z,2.37
2019-02-03T13:23:20.166Z,4.17
2019-02-03T13:25:49.785Z,4.12
2019-02-03T13:28:19.380Z,4.58
2019-02-03T13:30:50.751Z,4.37
2019-02-03T13:33:21.486Z,3.72
2019-02-03T13:35:52.737Z,3.70
2019-02-03T13:38:22.227Z,5.37
2019-02-03T13:40:51.902Z,4.42
2019-02-03T13:43:23.115Z,4.60
2019-02-03T13:45:52.692Z,5.80
2019-02-03T13:48:22.189Z,4.40
2019-02-03T13:50:54.663Z,4.15
2019-02-03T13:53:22.987Z,5.55
2019-02-03T13:55:52.757Z,5.08
2019-02-03T13:58:22.319Z,6.58
2019-02-03T14:00:51.969Z,5.12
2019-02-03T14:03:21.619Z,8.48
2019-02-03T14:05:51.098Z,7.30
2019-02-03T14:08:20.700Z,4.10
2019-02-03T14:10:50.244Z,3.67
2019-02-03T14:13:19.888Z,3.20
2019-02-03T14:15:49.387Z,4.53
2019-02-03T14:18:18.907Z,4.67
2019-02-03T14:20:48.471Z,2.90
2019-02-03T14:23:18.031Z,3.80
2019-02-03T14:25:47.527Z,3.77
2019-02-03T14:28:17.146Z,4.30
2019-02-03T14:30:46.827Z,4.05
2019-02-03T14:33:16.415Z,2.85
2019-02-03T14:35:46.523Z,3.75
2019-02-03T14:38:16.223Z,2.72
2019-02-03T14:40:45.736Z,2.90
2019-02-03T14:43:15.398Z,3.50
2019-02-03T14:45:45.047Z,5.72
2019-02-03T14:48:14.550Z,6.35
2019-02-03T14:50:44.137Z,2.77
2019-02-03T14:53:14.340Z,5.55
2019-02-03T14:55:46.147Z,4.10
2019-02-03T14:58:15.734Z,2.58
2019-02-03T15:00:48.068Z,6.60
2019-02-03T15:03:19.970Z,4.50
2019-02-03T15:05:50.102Z,4.45
2019-02-03T15:08:19.737Z,2.70
2019-02-03T15:10:49.404Z,4.55
2019-02-03T15:13:18.957Z,2.52
2019-02-03T15:15:48.846Z,6.35
2019-02-03T15:18:18.443Z,4.33
2019-02-03T15:20:47.986Z,3.90
2019-02-03T15:23:17.468Z,5.53
2019-02-03T15:25:47.032Z,4.22
2019-02-03T15:28:16.997Z,3.67
2019-02-03T15:30:47.084Z,6.17
2019-02-03T15:33:16.745Z,4.25
2019-02-03T15:35:46.307Z,2.70
2019-02-03T15:38:15.929Z,4.17
2019-02-03T15:40:45.686Z,2.72
2019-02-03T15:43:25.215Z,4.25
2019-02-03T15:45:46.542Z,3.50
2019-02-03T15:48:16.092Z,5.17
2019-02-03T15:50:45.600Z,3.85
2019-02-03T15:53:15.290Z,2.35
2019-02-03T15:55:44.844Z,5.20
2019-02-03T15:58:14.936Z,2.22
2019-02-03T16:00:51.467Z,5.10
2019-02-03T16:03:21.093Z,4.60
2019-02-03T16:05:51.142Z,4.08
2019-02-03T16:08:20.636Z,4.37
2019-02-03T16:10:50.201Z,3.37
2019-02-03T16:13:19.761Z,13.38
2019-02-03T16:15:49.362Z,10.53
2019-02-03T16:18:18.905Z,12.95
2019-02-03T16:20:48.427Z,11.48
2019-02-03T16:23:17.918Z,8.28
2019-02-03T16:25:47.536Z,4.95
2019-02-03T16:28:17.106Z,7.25
2019-02-03T16:30:46.683Z,7.80
2019-02-03T16:33:16.167Z,5.78
2019-02-03T16:35:45.715Z,5.12
2019-02-03T16:38:22.933Z,5.15
2019-02-03T16:40:46.502Z,4.42
2019-02-03T16:43:16.446Z,5.30
2019-02-03T16:45:46.066Z,3.85
2019-02-03T16:48:15.686Z,4.20
2019-02-03T16:50:45.335Z,6.78
2019-02-03T16:53:14.824Z,4.50
2019-02-03T16:55:44.396Z,6.05
2019-02-03T16:58:13.967Z,8.63
2019-02-03T17:00:43.603Z,7.37
2019-02-03T17:03:13.255Z,5.50
2019-02-03T17:05:42.794Z,6.25
2019-02-03T17:08:13.576Z,7.40
2019-02-03T17:10:44.164Z,9.10
2019-02-03T17:13:13.902Z,17.20
2019-02-03T17:15:51.238Z,23.12
2019-02-03T17:18:20.795Z,21.15
2019-02-03T17:21:01.300Z,14.28
2019-02-03T17:23:21.646Z,14.05
2019-02-03T17:25:58.836Z,9.10
2019-02-03T17:28:28.391Z,15.03
2019-02-03T17:30:58.127Z,11.70
2019-02-03T17:33:27.610Z,16.87
2019-02-03T17:35:57.177Z,16.95
2019-02-03T17:38:26.779Z,15.10
2019-02-03T17:40:56.267Z,6.30
2019-02-03T17:43:25.980Z,4.53
2019-02-03T17:45:55.565Z,4.60
2019-02-03T17:48:25.148Z,4.15
2019-02-03T17:50:54.773Z,5.97
2019-02-03T17:53:24.712Z,7.58
2019-02-03T17:55:54.442Z,9.08
2019-02-03T17:58:24.061Z,3.85
2019-02-03T18:01:01.307Z,7.00
2019-02-03T18:03:31.048Z,10.63
2019-02-03T18:06:00.913Z,14.00
2019-02-03T18:08:30.433Z,5.55
2019-02-03T18:10:59.948Z,7.12
2019-02-03T18:13:29.530Z,9.53
2019-02-03T18:15:59.030Z,5.15
2019-02-03T18:18:28.602Z,8.00
2019-02-03T18:20:58.206Z,8.90
2019-02-03T18:23:27.807Z,9.60
2019-02-03T18:25:57.365Z,10.03
2019-02-03T18:28:26.937Z,9.80
2019-02-03T18:30:56.483Z,8.48
2019-02-03T18:33:26.556Z,7.40
2019-02-03T18:35:56.071Z,10.58
2019-02-03T18:38:25.575Z,13.83
2019-02-03T18:40:55.383Z,29.42
2019-02-03T18:43:24.958Z,59.25
2019-02-03T18:45:54.603Z,30.27
2019-02-03T18:48:24.237Z,19.10
2019-02-03T18:50:53.821Z,10.23
2019-02-03T18:53:23.493Z,14.85
2019-02-03T18:55:53.034Z,6.30
2019-02-03T18:58:22.632Z,14.13
2019-02-03T19:00:52.535Z,8.50
2019-02-03T19:03:22.092Z,4.95
2019-02-03T19:05:51.699Z,7.70
2019-02-03T19:08:21.277Z,4.47
2019-02-03T19:10:50.885Z,3.75
2019-02-03T19:13:20.385Z,4.10
2019-02-03T19:15:52.704Z,10.70
2019-02-03T19:18:21.538Z,11.78
2019-02-03T19:20:51.036Z,8.30
2019-02-03T19:23:20.610Z,8.13
2019-02-03T19:25:50.154Z,8.45
2019-02-03T19:28:19.934Z,5.58
2019-02-03T19:30:49.500Z,13.88
2019-02-03T19:33:19.110Z,18.20
2019-02-03T19:35:48.617Z,9.23
2019-02-03T19:38:18.195Z,7.85
2019-02-03T19:40:48.515Z,10.15
2019-02-03T19:43:18.012Z,9.33
2019-02-03T19:45:47.704Z,13.15
2019-02-03T19:48:17.181Z,11.35
2019-02-03T19:50:46.782Z,6.90
2019-02-03T19:53:16.314Z,13.70
2019-02-03T19:55:45.974Z,16.23
2019-02-03T19:58:15.574Z,8.93
2019-02-03T20:00:46.897Z,12.63
2019-02-03T20:03:16.404Z,8.43
2019-02-03T20:05:46.053Z,9.98
2019-02-03T20:08:16.022Z,9.95
2019-02-03T20:10:45.647Z,12.47
2019-02-03T20:13:15.216Z,8.40
2019-02-03T20:15:44.724Z,10.08
2019-02-03T20:18:14.367Z,8.58
2019-02-03T20:20:43.882Z,10.65
2019-02-03T20:23:13.658Z,10.38
2019-02-03T20:25:43.384Z,10.88
2019-02-03T20:28:12.965Z,10.38
2019-02-03T20:30:42.614Z,7.78
2019-02-03T20:33:12.228Z,12.70
2019-02-03T20:35:41.820Z,9.58
2019-02-03T20:38:11.583Z,9.88
2019-02-03T20:40:45.522Z,9.20
2019-02-03T20:43:15.126Z,11.63
2019-02-03T20:45:49.387Z,9.55
2019-02-03T20:48:16.113Z,7.22
2019-02-03T20:50:45.771Z,11.57
2019-02-03T20:53:19.067Z,8.68
2019-02-03T20:55:48.563Z,5.25
2019-02-03T20:58:18.163Z,11.97
2019-02-03T21:00:47.715Z,11.63
2019-02-03T21:03:17.601Z,7.03
2019-02-03T21:05:47.129Z,7.50
2019-02-03T21:08:16.759Z,8.88
2019-02-03T21:10:46.297Z,7.87
2019-02-03T21:13:15.871Z,8.68
2019-02-03T21:15:45.498Z,5.85
2019-02-03T21:18:15.059Z,9.00
2019-02-03T21:20:44.601Z,9.63
2019-02-03T21:23:14.634Z,11.75
2019-02-03T21:25:44.119Z,10.98
2019-02-03T21:28:13.706Z,5.53
2019-02-03T21:30:43.575Z,6.45
2019-02-03T21:33:13.152Z,7.65
2019-02-03T21:35:42.608Z,8.05
2019-02-03T21:38:12.376Z,4.75
2019-02-03T21:40:42.007Z,8.78
2019-02-03T21:43:11.491Z,5.83
2019-02-03T21:45:44.879Z,9.65
2019-02-03T21:48:12.365Z,6.10
2019-02-03T21:50:41.990Z,8.20
2019-02-03T21:53:11.651Z,9.50
2019-02-03T21:55:41.143Z,21.15
2019-02-03T21:58:10.843Z,11.65
2019-02-03T22:00:40.498Z,10.00
2019-02-03T22:03:10.012Z,11.10
2019-02-03T22:05:39.531Z,12.00
2019-02-03T22:08:09.107Z,11.20
2019-02-03T22:10:39.083Z,9.38
2019-02-03T22:13:08.668Z,10.03
2019-02-03T22:15:38.247Z,8.55
2019-02-03T22:18:07.905Z,9.63
2019-02-03T22:20:37.423Z,10.15
2019-02-03T22:23:07.106Z,9.65
2019-02-03T22:25:37.109Z,10.18
2019-02-03T22:28:06.820Z,13.75
2019-02-03T22:30:38.943Z,5.92
2019-02-03T22:33:08.603Z,10.08
2019-02-03T22:35:38.319Z,8.55
2019-02-03T22:38:08.166Z,6.75
2019-02-03T22:40:37.823Z,7.85
2019-02-03T22:43:07.450Z,8.70
2019-02-03T22:45:38.023Z,5.45
2019-02-03T22:48:07.939Z,25.95
2019-02-03T22:50:37.701Z,9.63
2019-02-03T22:53:09.434Z,7.00
2019-02-03T22:55:38.639Z,5.78
2019-02-03T22:58:09.197Z,5.95
2019-02-03T23:00:52.252Z,8.33
2019-02-03T23:03:32.260Z,13.53
2019-02-03T23:06:01.848Z,6.60
2019-02-03T23:08:31.422Z,6.90
2019-02-03T23:11:01.019Z,8.68
2019-02-03T23:13:31.078Z,8.68
2019-02-03T23:16:00.600Z,8.63
2019-02-03T23:18:30.080Z,7.15
2019-02-03T23:20:59.644Z,10.70
2019-02-03T23:23:29.207Z,6.72
2019-02-03T23:25:58.773Z,11.50
2019-02-03T23:28:28.459Z,8.08
2019-02-03T23:30:58.018Z,5.62
2019-02-03T23:33:27.605Z,11.70
2019-02-03T23:35:57.117Z,6.45
2019-02-03T23:38:26.605Z,7.97
2019-02-03T23:40:56.110Z,9.90
2019-02-03T23:43:25.704Z,7.42
2019-02-03T23:45:55.276Z,8.43
2019-02-03T23:48:24.876Z,12.15
2019-02-03T23:50:54.541Z,8.18
2019-02-03T23:53:25.769Z,4.90
2019-02-03T23:55:55.346Z,6.62
2019-02-03T23:58:24.930Z,13.40
